sensor_id;sensor_type;location;lat;lon;timestamp;P1;durP1;ratioP1;P2;durP2;ratioP2
27201;SDS011;14717;46.924;15.474;2023-04-23T00:00:46;8.68;;;4.75;;
27201;SDS011;14717;46.924;15.474;2023-04-23T00:03:13;10.88;;;5.38;;
27201;SDS011;14717;46.924;15.474;2023-04-23T00:05:39;7.13;;;4.95;;
27201;SDS011;14717;46.924;15.474;2023-04-23T00:08:07;7.25;;;4.68;;
27201;SDS011;14717;46.924;15.474;2023-04-23T00:10:34;9.77;;;5.55;;
27201;SDS011;14717;46.924;15.474;2023-04-23T00:13:00;8.23;;;4.78;;
27201;SDS011;14717;46.924;15.474;2023-04-23T00:15:26;9.45;;;4.95;;
27201;SDS011;14717;46.924;15.474;2023-04-23T00:17:52;6.97;;;4.50;;
27201;SDS011;14717;46.924;15.474;2023-04-23T00:20:18;7.90;;;5.18;;
27201;SDS011;14717;46.924;15.474;2023-04-23T00:22:43;8.27;;;5.03;;
27201;SDS011;14717;46.924;15.474;2023-04-23T00:25:09;8.15;;;5.35;;
27201;SDS011;14717;46.924;15.474;2023-04-23T00:27:35;9.70;;;5.03;;
27201;SDS011;14717;46.924;15.474;2023-04-23T00:30:01;9.48;;;5.55;;
27201;SDS011;14717;46.924;15.474;2023-04-23T00:32:27;11.70;;;5.85;;
27201;SDS011;14717;46.924;15.474;2023-04-23T00:34:52;12.30;;;6.53;;
27201;SDS011;14717;46.924;15.474;2023-04-23T00:37:19;10.55;;;5.15;;
27201;SDS011;14717;46.924;15.474;2023-04-23T00:39:44;10.40;;;5.25;;
27201;SDS011;14717;46.924;15.474;2023-04-23T00:42:10;11.00;;;5.00;;
27201;SDS011;14717;46.924;15.474;2023-04-23T00:47:05;9.45;;;5.45;;
27201;SDS011;14717;46.924;15.474;2023-04-23T00:49:35;11.23;;;5.20;;
27201;SDS011;14717;46.924;15.474;2023-04-23T00:52:01;8.27;;;5.63;;
27201;SDS011;14717;46.924;15.474;2023-04-23T00:54:28;9.57;;;5.50;;
27201;SDS011;14717;46.924;15.474;2023-04-23T00:56:53;8.88;;;4.97;;
27201;SDS011;14717;46.924;15.474;2023-04-23T00:59:21;12.25;;;5.90;;
27201;SDS011;14717;46.924;15.474;2023-04-23T01:01:49;14.48;;;5.63;;
27201;SDS011;14717;46.924;15.474;2023-04-23T01:04:15;10.90;;;5.07;;
27201;SDS011;14717;46.924;15.474;2023-04-23T01:06:41;10.52;;;5.70;;
27201;SDS011;14717;46.924;15.474;2023-04-23T01:09:07;10.82;;;5.15;;
27201;SDS011;14717;46.924;15.474;2023-04-23T01:11:34;8.50;;;5.18;;
27201;SDS011;14717;46.924;15.474;2023-04-23T01:14:03;8.65;;;5.00;;
27201;SDS011;14717;46.924;15.474;2023-04-23T01:16:29;9.75;;;5.55;;
27201;SDS011;14717;46.924;15.474;2023-04-23T01:18:55;9.48;;;5.72;;
27201;SDS011;14717;46.924;15.474;2023-04-23T01:21:20;9.82;;;5.70;;
27201;SDS011;14717;46.924;15.474;2023-04-23T01:23:48;10.38;;;5.20;;
27201;SDS011;14717;46.924;15.474;2023-04-23T01:26:14;9.07;;;5.28;;
27201;SDS011;14717;46.924;15.474;2023-04-23T01:28:40;11.23;;;5.72;;
27201;SDS011;14717;46.924;15.474;2023-04-23T01:31:07;8.90;;;5.35;;
27201;SDS011;14717;46.924;15.474;2023-04-23T01:33:33;7.88;;;5.07;;
27201;SDS011;14717;46.924;15.474;2023-04-23T01:36:00;10.77;;;5.88;;
27201;SDS011;14717;46.924;15.474;2023-04-23T01:38:27;10.10;;;5.53;;
27201;SDS011;14717;46.924;15.474;2023-04-23T01:40:56;8.07;;;4.93;;
27201;SDS011;14717;46.924;15.474;2023-04-23T01:43:21;10.13;;;5.60;;
27201;SDS011;14717;46.924;15.474;2023-04-23T01:45:47;10.00;;;5.43;;
27201;SDS011;14717;46.924;15.474;2023-04-23T01:48:12;9.57;;;4.97;;
27201;SDS011;14717;46.924;15.474;2023-04-23T01:50:38;9.90;;;5.25;;
27201;SDS011;14717;46.924;15.474;2023-04-23T01:53:04;9.32;;;5.28;;
27201;SDS011;14717;46.924;15.474;2023-04-23T01:55:30;8.30;;;4.80;;
27201;SDS011;14717;46.924;15.474;2023-04-23T01:57:56;9.80;;;5.22;;
27201;SDS011;14717;46.924;15.474;2023-04-23T02:00:21;11.75;;;5.40;;
27201;SDS011;14717;46.924;15.474;2023-04-23T02:02:47;11.63;;;5.68;;
27201;SDS011;14717;46.924;15.474;2023-04-23T02:05:16;8.93;;;5.60;;
27201;SDS011;14717;46.924;15.474;2023-04-23T02:07:47;9.15;;;5.57;;
27201;SDS011;14717;46.924;15.474;2023-04-23T02:10:14;7.53;;;4.70;;
27201;SDS011;14717;46.924;15.474;2023-04-23T02:12:40;10.15;;;5.18;;
27201;SDS011;14717;46.924;15.474;2023-04-23T02:15:06;9.20;;;4.35;;
27201;SDS011;14717;46.924;15.474;2023-04-23T02:17:32;8.27;;;4.88;;
27201;SDS011;14717;46.924;15.474;2023-04-23T02:19:59;8.07;;;4.47;;
27201;SDS011;14717;46.924;15.474;2023-04-23T02:22:25;7.35;;;4.70;;
27201;SDS011;14717;46.924;15.474;2023-04-23T02:24:54;8.77;;;4.85;;
27201;SDS011;14717;46.924;15.474;2023-04-23T02:27:20;10.70;;;4.90;;
27201;SDS011;14717;46.924;15.474;2023-04-23T02:29:46;8.98;;;4.47;;
27201;SDS011;14717;46.924;15.474;2023-04-23T02:32:12;8.25;;;4.93;;
27201;SDS011;14717;46.924;15.474;2023-04-23T02:34:38;11.13;;;5.00;;
27201;SDS011;14717;46.924;15.474;2023-04-23T02:37:03;8.93;;;4.72;;
27201;SDS011;14717;46.924;15.474;2023-04-23T02:39:29;9.68;;;5.32;;
27201;SDS011;14717;46.924;15.474;2023-04-23T02:41:55;8.20;;;4.47;;
27201;SDS011;14717;46.924;15.474;2023-04-23T02:44:20;7.70;;;4.75;;
27201;SDS011;14717;46.924;15.474;2023-04-23T02:46:46;7.82;;;4.65;;
27201;SDS011;14717;46.924;15.474;2023-04-23T02:49:11;7.00;;;4.70;;
27201;SDS011;14717;46.924;15.474;2023-04-23T02:51:38;10.00;;;4.78;;
27201;SDS011;14717;46.924;15.474;2023-04-23T02:54:04;9.48;;;5.22;;
27201;SDS011;14717;46.924;15.474;2023-04-23T02:56:30;8.35;;;5.07;;
27201;SDS011;14717;46.924;15.474;2023-04-23T02:58:55;9.18;;;4.90;;
27201;SDS011;14717;46.924;15.474;2023-04-23T03:01:21;8.00;;;5.10;;
27201;SDS011;14717;46.924;15.474;2023-04-23T03:03:46;10.07;;;5.60;;
27201;SDS011;14717;46.924;15.474;2023-04-23T03:06:12;12.95;;;6.38;;
27201;SDS011;14717;46.924;15.474;2023-04-23T03:08:37;11.88;;;6.18;;
27201;SDS011;14717;46.924;15.474;2023-04-23T03:11:03;13.57;;;6.45;;
27201;SDS011;14717;46.924;15.474;2023-04-23T03:13:28;12.95;;;6.20;;
27201;SDS011;14717;46.924;15.474;2023-04-23T03:15:54;10.15;;;5.53;;
27201;SDS011;14717;46.924;15.474;2023-04-23T03:18:19;11.65;;;6.30;;
27201;SDS011;14717;46.924;15.474;2023-04-23T03:20:45;9.75;;;5.80;;
27201;SDS011;14717;46.924;15.474;2023-04-23T03:23:10;13.65;;;5.90;;
27201;SDS011;14717;46.924;15.474;2023-04-23T03:25:36;10.40;;;6.18;;
27201;SDS011;14717;46.924;15.474;2023-04-23T03:28:01;11.68;;;6.05;;
27201;SDS011;14717;46.924;15.474;2023-04-23T03:30:27;11.00;;;5.60;;
27201;SDS011;14717;46.924;15.474;2023-04-23T03:32:56;8.82;;;5.13;;
27201;SDS011;14717;46.924;15.474;2023-04-23T03:35:22;10.00;;;5.60;;
27201;SDS011;14717;46.924;15.474;2023-04-23T03:37:49;11.65;;;5.55;;
27201;SDS011;14717;46.924;15.474;2023-04-23T03:40:14;8.45;;;5.28;;
27201;SDS011;14717;46.924;15.474;2023-04-23T03:42:40;8.93;;;6.10;;
27201;SDS011;14717;46.924;15.474;2023-04-23T03:45:06;9.73;;;5.20;;
27201;SDS011;14717;46.924;15.474;2023-04-23T03:47:31;11.35;;;5.53;;
27201;SDS011;14717;46.924;15.474;2023-04-23T03:49:57;8.82;;;5.03;;
27201;SDS011;14717;46.924;15.474;2023-04-23T03:52:22;10.52;;;5.13;;
27201;SDS011;14717;46.924;15.474;2023-04-23T03:54:48;8.30;;;4.55;;
27201;SDS011;14717;46.924;15.474;2023-04-23T03:57:13;9.63;;;5.22;;
27201;SDS011;14717;46.924;15.474;2023-04-23T03:59:38;9.63;;;5.30;;
27201;SDS011;14717;46.924;15.474;2023-04-23T04:02:04;9.93;;;5.03;;
27201;SDS011;14717;46.924;15.474;2023-04-23T04:04:30;9.35;;;5.00;;
27201;SDS011;14717;46.924;15.474;2023-04-23T04:06:56;8.93;;;5.03;;
27201;SDS011;14717;46.924;15.474;2023-04-23T04:09:22;7.20;;;4.20;;
27201;SDS011;14717;46.924;15.474;2023-04-23T04:11:47;9.02;;;4.82;;
27201;SDS011;14717;46.924;15.474;2023-04-23T04:14:13;9.20;;;4.70;;
27201;SDS011;14717;46.924;15.474;2023-04-23T04:16:38;8.02;;;4.65;;
27201;SDS011;14717;46.924;15.474;2023-04-23T04:19:04;7.50;;;4.78;;
27201;SDS011;14717;46.924;15.474;2023-04-23T04:21:29;7.97;;;4.32;;
27201;SDS011;14717;46.924;15.474;2023-04-23T04:23:56;7.93;;;4.68;;
27201;SDS011;14717;46.924;15.474;2023-04-23T04:26:21;10.20;;;4.80;;
27201;SDS011;14717;46.924;15.474;2023-04-23T04:28:47;10.02;;;4.82;;
27201;SDS011;14717;46.924;15.474;2023-04-23T04:31:12;7.50;;;4.30;;
27201;SDS011;14717;46.924;15.474;2023-04-23T04:33:39;10.18;;;5.05;;
27201;SDS011;14717;46.924;15.474;2023-04-23T04:36:05;8.18;;;5.05;;
27201;SDS011;14717;46.924;15.474;2023-04-23T04:38:33;7.97;;;4.55;;
27201;SDS011;14717;46.924;15.474;2023-04-23T04:41:01;10.35;;;4.60;;
27201;SDS011;14717;46.924;15.474;2023-04-23T04:43:27;8.80;;;5.22;;
27201;SDS011;14717;46.924;15.474;2023-04-23T04:45:52;9.13;;;5.18;;
27201;SDS011;14717;46.924;15.474;2023-04-23T04:48:18;7.70;;;5.03;;
27201;SDS011;14717;46.924;15.474;2023-04-23T04:50:44;11.30;;;5.32;;
27201;SDS011;14717;46.924;15.474;2023-04-23T04:53:10;20.85;;;8.68;;
27201;SDS011;14717;46.924;15.474;2023-04-23T04:55:35;18.00;;;8.63;;
27201;SDS011;14717;46.924;15.474;2023-04-23T04:58:01;15.23;;;6.43;;
27201;SDS011;14717;46.924;15.474;2023-04-23T05:00:27;10.55;;;5.80;;
27201;SDS011;14717;46.924;15.474;2023-04-23T05:02:54;12.82;;;6.93;;
27201;SDS011;14717;46.924;15.474;2023-04-23T05:05:22;13.68;;;7.15;;
27201;SDS011;14717;46.924;15.474;2023-04-23T05:07:48;16.00;;;7.82;;
27201;SDS011;14717;46.924;15.474;2023-04-23T05:10:14;17.30;;;8.32;;
27201;SDS011;14717;46.924;15.474;2023-04-23T05:12:40;16.50;;;7.75;;
27201;SDS011;14717;46.924;15.474;2023-04-23T05:15:07;17.80;;;7.60;;
27201;SDS011;14717;46.924;15.474;2023-04-23T05:17:34;13.68;;;7.95;;
27201;SDS011;14717;46.924;15.474;2023-04-23T05:20:00;11.60;;;6.28;;
27201;SDS011;14717;46.924;15.474;2023-04-23T05:22:26;10.43;;;6.30;;
27201;SDS011;14717;46.924;15.474;2023-04-23T05:24:51;12.25;;;6.95;;
27201;SDS011;14717;46.924;15.474;2023-04-23T05:27:17;9.82;;;5.82;;
27201;SDS011;14717;46.924;15.474;2023-04-23T05:29:42;9.45;;;5.78;;
27201;SDS011;14717;46.924;15.474;2023-04-23T05:32:08;9.98;;;5.90;;
27201;SDS011;14717;46.924;15.474;2023-04-23T05:34:33;8.48;;;5.45;;
27201;SDS011;14717;46.924;15.474;2023-04-23T05:36:59;9.45;;;5.78;;
27201;SDS011;14717;46.924;15.474;2023-04-23T05:39:24;10.07;;;5.90;;
27201;SDS011;14717;46.924;15.474;2023-04-23T05:41:50;10.48;;;5.97;;
27201;SDS011;14717;46.924;15.474;2023-04-23T05:44:15;7.70;;;5.03;;
27201;SDS011;14717;46.924;15.474;2023-04-23T05:46:40;11.60;;;5.50;;
27201;SDS011;14717;46.924;15.474;2023-04-23T05:49:06;10.02;;;5.80;;
27201;SDS011;14717;46.924;15.474;2023-04-23T05:51:31;9.98;;;5.20;;
27201;SDS011;14717;46.924;15.474;2023-04-23T05:53:57;11.35;;;5.85;;
27201;SDS011;14717;46.924;15.474;2023-04-23T05:56:22;10.55;;;5.72;;
27201;SDS011;14717;46.924;15.474;2023-04-23T05:58:47;10.10;;;5.20;;
27201;SDS011;14717;46.924;15.474;2023-04-23T06:01:13;9.43;;;5.93;;
27201;SDS011;14717;46.924;15.474;2023-04-23T06:03:38;10.23;;;5.63;;
27201;SDS011;14717;46.924;15.474;2023-04-23T06:06:09;12.27;;;6.18;;
27201;SDS011;14717;46.924;15.474;2023-04-23T06:08:34;10.60;;;5.65;;
27201;SDS011;14717;46.924;15.474;2023-04-23T06:11:00;10.48;;;5.15;;
27201;SDS011;14717;46.924;15.474;2023-04-23T06:13:26;8.93;;;4.68;;
27201;SDS011;14717;46.924;15.474;2023-04-23T06:15:52;10.80;;;5.28;;
27201;SDS011;14717;46.924;15.474;2023-04-23T06:18:17;9.00;;;5.55;;
27201;SDS011;14717;46.924;15.474;2023-04-23T06:20:43;9.18;;;5.80;;
27201;SDS011;14717;46.924;15.474;2023-04-23T06:23:09;13.45;;;6.22;;
27201;SDS011;14717;46.924;15.474;2023-04-23T06:25:36;10.15;;;5.78;;
27201;SDS011;14717;46.924;15.474;2023-04-23T06:28:01;11.40;;;5.97;;
27201;SDS011;14717;46.924;15.474;2023-04-23T06:30:27;9.80;;;5.90;;
27201;SDS011;14717;46.924;15.474;2023-04-23T06:32:52;9.00;;;5.90;;
27201;SDS011;14717;46.924;15.474;2023-04-23T06:35:17;9.80;;;5.25;;
27201;SDS011;14717;46.924;15.474;2023-04-23T06:37:43;8.73;;;5.57;;
27201;SDS011;14717;46.924;15.474;2023-04-23T06:40:08;12.05;;;6.13;;
27201;SDS011;14717;46.924;15.474;2023-04-23T06:42:35;9.75;;;5.70;;
27201;SDS011;14717;46.924;15.474;2023-04-23T06:45:00;9.23;;;5.63;;
27201;SDS011;14717;46.924;15.474;2023-04-23T06:47:28;8.73;;;5.10;;
27201;SDS011;14717;46.924;15.474;2023-04-23T06:49:54;9.05;;;5.68;;
27201;SDS011;14717;46.924;15.474;2023-04-23T06:52:19;7.78;;;4.93;;
27201;SDS011;14717;46.924;15.474;2023-04-23T06:54:45;9.02;;;5.57;;
27201;SDS011;14717;46.924;15.474;2023-04-23T06:57:10;9.43;;;5.20;;
27201;SDS011;14717;46.924;15.474;2023-04-23T06:59:35;10.68;;;5.65;;
27201;SDS011;14717;46.924;15.474;2023-04-23T07:02:01;11.52;;;5.57;;
27201;SDS011;14717;46.924;15.474;2023-04-23T07:04:26;10.20;;;5.13;;
27201;SDS011;14717;46.924;15.474;2023-04-23T07:06:51;9.20;;;5.07;;
27201;SDS011;14717;46.924;15.474;2023-04-23T07:09:17;11.55;;;5.20;;
27201;SDS011;14717;46.924;15.474;2023-04-23T07:11:42;8.70;;;5.22;;
27201;SDS011;14717;46.924;15.474;2023-04-23T07:14:08;12.32;;;5.65;;
27201;SDS011;14717;46.924;15.474;2023-04-23T07:16:33;9.40;;;5.28;;
27201;SDS011;14717;46.924;15.474;2023-04-23T07:18:59;9.88;;;4.85;;
27201;SDS011;14717;46.924;15.474;2023-04-23T07:21:26;10.73;;;5.50;;
27201;SDS011;14717;46.924;15.474;2023-04-23T07:23:53;9.77;;;5.57;;
27201;SDS011;14717;46.924;15.474;2023-04-23T07:26:23;7.93;;;5.15;;
27201;SDS011;14717;46.924;15.474;2023-04-23T07:28:49;8.98;;;5.22;;
27201;SDS011;14717;46.924;15.474;2023-04-23T07:31:16;8.15;;;5.20;;
27201;SDS011;14717;46.924;15.474;2023-04-23T07:33:42;9.55;;;5.35;;
27201;SDS011;14717;46.924;15.474;2023-04-23T07:36:07;10.27;;;5.43;;
27201;SDS011;14717;46.924;15.474;2023-04-23T07:38:32;8.38;;;5.35;;
27201;SDS011;14717;46.924;15.474;2023-04-23T07:40:58;8.75;;;5.20;;
27201;SDS011;14717;46.924;15.474;2023-04-23T07:43:23;9.40;;;5.80;;
27201;SDS011;14717;46.924;15.474;2023-04-23T07:45:48;8.57;;;5.03;;
27201;SDS011;14717;46.924;15.474;2023-04-23T07:48:14;8.73;;;5.55;;
27201;SDS011;14717;46.924;15.474;2023-04-23T07:50:39;8.05;;;5.28;;
27201;SDS011;14717;46.924;15.474;2023-04-23T07:55:30;9.20;;;5.70;;
27201;SDS011;14717;46.924;15.474;2023-04-23T08:00:20;10.27;;;4.83;;
27201;SDS011;14717;46.924;15.474;2023-04-23T08:02:46;8.52;;;5.13;;
27201;SDS011;14717;46.924;15.474;2023-04-23T08:07:37;8.70;;;5.35;;
27201;SDS011;14717;46.924;15.474;2023-04-23T08:10:02;7.55;;;4.60;;
27201;SDS011;14717;46.924;15.474;2023-04-23T08:12:30;12.02;;;4.72;;
27201;SDS011;14717;46.924;15.474;2023-04-23T08:14:57;10.63;;;4.75;;
27201;SDS011;14717;46.924;15.474;2023-04-23T08:19:48;9.50;;;4.87;;
27201;SDS011;14717;46.924;15.474;2023-04-23T08:24:40;8.27;;;4.60;;
27201;SDS011;14717;46.924;15.474;2023-04-23T08:27:06;9.10;;;4.70;;
27201;SDS011;14717;46.924;15.474;2023-04-23T08:31:57;10.23;;;4.70;;
27201;SDS011;14717;46.924;15.474;2023-04-23T08:34:23;7.75;;;4.32;;
27201;SDS011;14717;46.924;15.474;2023-04-23T08:36:48;10.45;;;4.70;;
27201;SDS011;14717;46.924;15.474;2023-04-23T08:41:39;8.43;;;4.77;;
27201;SDS011;14717;46.924;15.474;2023-04-23T08:44:14;9.00;;;4.15;;
27201;SDS011;14717;46.924;15.474;2023-04-23T08:46:43;9.77;;;4.45;;
27201;SDS011;14717;46.924;15.474;2023-04-23T08:49:13;6.60;;;4.03;;
27201;SDS011;14717;46.924;15.474;2023-04-23T08:51:42;6.45;;;3.90;;
27201;SDS011;14717;46.924;15.474;2023-04-23T08:54:14;6.32;;;3.95;;
27201;SDS011;14717;46.924;15.474;2023-04-23T08:56:45;6.47;;;3.80;;
27201;SDS011;14717;46.924;15.474;2023-04-23T08:59:11;8.02;;;4.10;;
27201;SDS011;14717;46.924;15.474;2023-04-23T09:01:37;7.13;;;4.43;;
27201;SDS011;14717;46.924;15.474;2023-04-23T09:04:02;7.55;;;4.35;;
27201;SDS011;14717;46.924;15.474;2023-04-23T09:06:29;8.82;;;4.63;;
27201;SDS011;14717;46.924;15.474;2023-04-23T09:08:56;8.63;;;4.20;;
27201;SDS011;14717;46.924;15.474;2023-04-23T09:11:23;7.15;;;4.28;;
27201;SDS011;14717;46.924;15.474;2023-04-23T09:13:51;9.10;;;4.55;;
27201;SDS011;14717;46.924;15.474;2023-04-23T09:16:17;7.88;;;4.28;;
27201;SDS011;14717;46.924;15.474;2023-04-23T09:18:42;7.78;;;4.95;;
27201;SDS011;14717;46.924;15.474;2023-04-23T09:21:08;7.78;;;5.03;;
27201;SDS011;14717;46.924;15.474;2023-04-23T09:23:37;9.13;;;4.53;;
27201;SDS011;14717;46.924;15.474;2023-04-23T09:26:04;8.52;;;4.63;;
27201;SDS011;14717;46.924;15.474;2023-04-23T09:28:36;7.68;;;4.85;;
27201;SDS011;14717;46.924;15.474;2023-04-23T09:31:05;7.25;;;4.22;;
27201;SDS011;14717;46.924;15.474;2023-04-23T09:33:33;8.00;;;4.07;;
27201;SDS011;14717;46.924;15.474;2023-04-23T09:36:04;6.43;;;4.40;;
27201;SDS011;14717;46.924;15.474;2023-04-23T09:38:39;6.60;;;4.15;;
27201;SDS011;14717;46.924;15.474;2023-04-23T09:41:18;6.07;;;4.18;;
27201;SDS011;14717;46.924;15.474;2023-04-23T09:43:48;9.43;;;4.68;;
27201;SDS011;14717;46.924;15.474;2023-04-23T09:46:13;9.35;;;4.50;;
27201;SDS011;14717;46.924;15.474;2023-04-23T09:48:39;5.65;;;4.53;;
27201;SDS011;14717;46.924;15.474;2023-04-23T09:51:06;7.88;;;5.00;;
27201;SDS011;14717;46.924;15.474;2023-04-23T09:53:38;9.15;;;5.03;;
27201;SDS011;14717;46.924;15.474;2023-04-23T09:56:05;7.45;;;4.25;;
27201;SDS011;14717;46.924;15.474;2023-04-23T09:58:31;6.75;;;4.25;;
27201;SDS011;14717;46.924;15.474;2023-04-23T10:01:05;6.28;;;4.15;;
27201;SDS011;14717;46.924;15.474;2023-04-23T10:03:33;6.97;;;4.50;;
27201;SDS011;14717;46.924;15.474;2023-04-23T10:05:59;6.60;;;4.05;;
27201;SDS011;14717;46.924;15.474;2023-04-23T10:08:25;6.90;;;4.00;;
27201;SDS011;14717;46.924;15.474;2023-04-23T10:10:51;7.97;;;4.30;;
27201;SDS011;14717;46.924;15.474;2023-04-23T10:13:17;5.75;;;3.75;;
27201;SDS011;14717;46.924;15.474;2023-04-23T10:15:44;8.30;;;4.07;;
27201;SDS011;14717;46.924;15.474;2023-04-23T10:18:10;6.50;;;3.78;;
27201;SDS011;14717;46.924;15.474;2023-04-23T10:20:39;7.03;;;3.83;;
27201;SDS011;14717;46.924;15.474;2023-04-23T10:23:06;5.85;;;3.20;;
27201;SDS011;14717;46.924;15.474;2023-04-23T10:25:33;5.05;;;3.72;;
27201;SDS011;14717;46.924;15.474;2023-04-23T10:28:00;5.90;;;3.85;;
27201;SDS011;14717;46.924;15.474;2023-04-23T10:30:28;6.15;;;3.30;;
27201;SDS011;14717;46.924;15.474;2023-04-23T10:32:54;8.20;;;3.38;;
27201;SDS011;14717;46.924;15.474;2023-04-23T10:35:24;5.80;;;3.50;;
27201;SDS011;14717;46.924;15.474;2023-04-23T10:37:49;5.50;;;3.80;;
27201;SDS011;14717;46.924;15.474;2023-04-23T10:40:27;5.95;;;3.25;;
27201;SDS011;14717;46.924;15.474;2023-04-23T10:42:56;5.47;;;3.22;;
27201;SDS011;14717;46.924;15.474;2023-04-23T10:45:22;5.75;;;3.50;;
27201;SDS011;14717;46.924;15.474;2023-04-23T10:47:47;5.40;;;3.28;;
27201;SDS011;14717;46.924;15.474;2023-04-23T10:52:47;4.45;;;3.17;;
27201;SDS011;14717;46.924;15.474;2023-04-23T10:55:18;4.70;;;3.25;;
27201;SDS011;14717;46.924;15.474;2023-04-23T11:00:22;6.80;;;3.28;;
27201;SDS011;14717;46.924;15.474;2023-04-23T11:02:48;5.65;;;3.35;;
27201;SDS011;14717;46.924;15.474;2023-04-23T11:05:15;4.05;;;2.78;;
27201;SDS011;14717;46.924;15.474;2023-04-23T11:07:41;5.15;;;2.70;;
27201;SDS011;14717;46.924;15.474;2023-04-23T11:10:12;5.20;;;3.33;;
27201;SDS011;14717;46.924;15.474;2023-04-23T11:12:39;4.07;;;2.60;;
27201;SDS011;14717;46.924;15.474;2023-04-23T11:15:11;4.78;;;2.78;;
27201;SDS011;14717;46.924;15.474;2023-04-23T11:20:12;4.20;;;3.22;;
27201;SDS011;14717;46.924;15.474;2023-04-23T11:25:29;5.70;;;2.92;;
27201;SDS011;14717;46.924;15.474;2023-04-23T11:27:55;5.05;;;3.17;;
27201;SDS011;14717;46.924;15.474;2023-04-23T11:30:25;5.85;;;3.30;;
27201;SDS011;14717;46.924;15.474;2023-04-23T11:32:53;4.68;;;2.97;;
27201;SDS011;14717;46.924;15.474;2023-04-23T11:35:21;5.45;;;3.50;;
27201;SDS011;14717;46.924;15.474;2023-04-23T11:37:48;11.68;;;6.93;;
27201;SDS011;14717;46.924;15.474;2023-04-23T11:40:17;14.70;;;7.63;;
27201;SDS011;14717;46.924;15.474;2023-04-23T11:42:44;11.65;;;6.30;;
27201;SDS011;14717;46.924;15.474;2023-04-23T11:45:21;5.25;;;3.17;;
27201;SDS011;14717;46.924;15.474;2023-04-23T11:47:48;4.57;;;3.33;;
27201;SDS011;14717;46.924;15.474;2023-04-23T11:50:24;4.63;;;3.03;;
27201;SDS011;14717;46.924;15.474;2023-04-23T11:52:52;4.63;;;3.28;;
27201;SDS011;14717;46.924;15.474;2023-04-23T11:55:18;5.88;;;3.17;;
27201;SDS011;14717;46.924;15.474;2023-04-23T11:57:45;6.40;;;3.42;;
27201;SDS011;14717;46.924;15.474;2023-04-23T12:02:48;6.20;;;3.50;;
27201;SDS011;14717;46.924;15.474;2023-04-23T12:05:21;6.18;;;3.70;;
27201;SDS011;14717;46.924;15.474;2023-04-23T12:07:50;4.95;;;3.05;;
27201;SDS011;14717;46.924;15.474;2023-04-23T12:10:16;4.90;;;3.35;;
27201;SDS011;14717;46.924;15.474;2023-04-23T12:12:43;4.38;;;3.08;;
27201;SDS011;14717;46.924;15.474;2023-04-23T12:15:08;6.40;;;2.88;;
27201;SDS011;14717;46.924;15.474;2023-04-23T12:17:34;4.68;;;3.08;;
27201;SDS011;14717;46.924;15.474;2023-04-23T12:20:02;4.78;;;3.20;;
27201;SDS011;14717;46.924;15.474;2023-04-23T12:22:28;5.22;;;2.83;;
27201;SDS011;14717;46.924;15.474;2023-04-23T12:24:54;4.70;;;2.53;;
27201;SDS011;14717;46.924;15.474;2023-04-23T12:27:19;4.53;;;2.83;;
27201;SDS011;14717;46.924;15.474;2023-04-23T12:29:46;4.25;;;2.75;;
27201;SDS011;14717;46.924;15.474;2023-04-23T12:32:13;6.65;;;3.20;;
27201;SDS011;14717;46.924;15.474;2023-04-23T12:34:54;6.28;;;3.17;;
27201;SDS011;14717;46.924;15.474;2023-04-23T12:37:24;6.32;;;2.90;;
27201;SDS011;14717;46.924;15.474;2023-04-23T12:39:53;4.13;;;2.72;;
27201;SDS011;14717;46.924;15.474;2023-04-23T12:42:20;5.90;;;2.92;;
27201;SDS011;14717;46.924;15.474;2023-04-23T12:44:46;4.78;;;3.05;;
27201;SDS011;14717;46.924;15.474;2023-04-23T12:47:12;4.95;;;3.05;;
27201;SDS011;14717;46.924;15.474;2023-04-23T12:49:39;4.80;;;3.17;;
27201;SDS011;14717;46.924;15.474;2023-04-23T12:52:06;4.57;;;2.78;;
27201;SDS011;14717;46.924;15.474;2023-04-23T12:54:33;5.43;;;3.00;;
27201;SDS011;14717;46.924;15.474;2023-04-23T12:57:03;4.95;;;3.05;;
27201;SDS011;14717;46.924;15.474;2023-04-23T12:59:30;6.53;;;3.33;;
27201;SDS011;14717;46.924;15.474;2023-04-23T13:01:56;4.65;;;3.08;;
27201;SDS011;14717;46.924;15.474;2023-04-23T13:04:25;5.13;;;3.17;;
27201;SDS011;14717;46.924;15.474;2023-04-23T13:06:51;6.22;;;3.63;;
27201;SDS011;14717;46.924;15.474;2023-04-23T13:09:16;4.75;;;3.00;;
27201;SDS011;14717;46.924;15.474;2023-04-23T13:11:42;5.47;;;2.90;;
27201;SDS011;14717;46.924;15.474;2023-04-23T13:14:08;5.13;;;3.00;;
27201;SDS011;14717;46.924;15.474;2023-04-23T13:16:33;5.30;;;3.22;;
27201;SDS011;14717;46.924;15.474;2023-04-23T13:18:59;5.68;;;2.95;;
27201;SDS011;14717;46.924;15.474;2023-04-23T13:21:24;4.55;;;2.97;;
27201;SDS011;14717;46.924;15.474;2023-04-23T13:23:50;5.72;;;3.22;;
27201;SDS011;14717;46.924;15.474;2023-04-23T13:26:16;4.82;;;2.95;;
27201;SDS011;14717;46.924;15.474;2023-04-23T13:28:41;3.65;;;2.78;;
27201;SDS011;14717;46.924;15.474;2023-04-23T13:31:07;5.70;;;3.20;;
27201;SDS011;14717;46.924;15.474;2023-04-23T13:33:33;4.50;;;3.33;;
27201;SDS011;14717;46.924;15.474;2023-04-23T13:35:59;5.95;;;3.00;;
27201;SDS011;14717;46.924;15.474;2023-04-23T13:38:25;6.82;;;3.35;;
27201;SDS011;14717;46.924;15.474;2023-04-23T13:40:51;4.97;;;3.30;;
27201;SDS011;14717;46.924;15.474;2023-04-23T13:43:17;4.90;;;3.30;;
27201;SDS011;14717;46.924;15.474;2023-04-23T13:45:43;4.68;;;3.38;;
27201;SDS011;14717;46.924;15.474;2023-04-23T13:48:10;4.65;;;3.05;;
27201;SDS011;14717;46.924;15.474;2023-04-23T13:50:35;5.53;;;3.40;;
27201;SDS011;14717;46.924;15.474;2023-04-23T13:53:01;5.65;;;2.90;;
27201;SDS011;14717;46.924;15.474;2023-04-23T13:55:26;4.00;;;2.92;;
27201;SDS011;14717;46.924;15.474;2023-04-23T13:57:52;5.40;;;3.17;;
27201;SDS011;14717;46.924;15.474;2023-04-23T14:00:21;5.68;;;3.70;;
27201;SDS011;14717;46.924;15.474;2023-04-23T14:02:47;5.43;;;2.95;;
27201;SDS011;14717;46.924;15.474;2023-04-23T14:05:13;4.97;;;2.80;;
27201;SDS011;14717;46.924;15.474;2023-04-23T14:07:38;4.95;;;2.90;;
27201;SDS011;14717;46.924;15.474;2023-04-23T14:10:03;4.50;;;3.22;;
27201;SDS011;14717;46.924;15.474;2023-04-23T14:12:29;5.63;;;3.55;;
27201;SDS011;14717;46.924;15.474;2023-04-23T14:14:55;4.30;;;3.10;;
27201;SDS011;14717;46.924;15.474;2023-04-23T14:17:20;6.43;;;3.53;;
27201;SDS011;14717;46.924;15.474;2023-04-23T14:19:45;6.28;;;3.60;;
27201;SDS011;14717;46.924;15.474;2023-04-23T14:22:11;4.82;;;3.13;;
27201;SDS011;14717;46.924;15.474;2023-04-23T14:24:49;5.10;;;3.15;;
27201;SDS011;14717;46.924;15.474;2023-04-23T14:27:15;4.13;;;3.15;;
27201;SDS011;14717;46.924;15.474;2023-04-23T14:29:55;8.63;;;3.50;;
27201;SDS011;14717;46.924;15.474;2023-04-23T14:32:21;5.40;;;2.83;;
27201;SDS011;14717;46.924;15.474;2023-04-23T14:34:47;5.65;;;3.30;;
27201;SDS011;14717;46.924;15.474;2023-04-23T14:37:12;5.25;;;3.20;;
27201;SDS011;14717;46.924;15.474;2023-04-23T14:39:39;4.90;;;2.80;;
27201;SDS011;14717;46.924;15.474;2023-04-23T14:42:04;5.03;;;3.45;;
27201;SDS011;14717;46.924;15.474;2023-04-23T14:44:30;5.28;;;3.03;;
27201;SDS011;14717;46.924;15.474;2023-04-23T14:46:55;6.32;;;3.22;;
27201;SDS011;14717;46.924;15.474;2023-04-23T14:49:21;10.00;;;3.70;;
27201;SDS011;14717;46.924;15.474;2023-04-23T14:51:47;5.88;;;3.30;;
27201;SDS011;14717;46.924;15.474;2023-04-23T14:54:19;5.00;;;3.20;;
27201;SDS011;14717;46.924;15.474;2023-04-23T14:56:45;7.93;;;3.40;;
27201;SDS011;14717;46.924;15.474;2023-04-23T14:59:11;4.50;;;2.85;;